createdAt,value
2019-02-28T00:04:40.706Z,4.23
2019-02-28T00:09:34.384Z,5.03
2019-02-28T00:14:28.502Z,4.53
2019-02-28T00:19:24.025Z,5.50
2019-02-28T00:24:15.762Z,4.07
2019-02-28T00:29:09.526Z,4.03
2019-02-28T00:34:05.481Z,3.53
2019-02-28T00:38:59.979Z,4.30
2019-02-28T00:43:51.312Z,4.67
2019-02-28T00:48:45.012Z,6.17
2019-02-28T00:53:38.687Z,4.93
2019-02-28T00:58:32.382Z,3.93
2019-02-28T01:03:27.453Z,5.60
2019-02-28T01:08:22.190Z,5.07
2019-02-28T01:13:12.788Z,4.77
2019-02-28T01:18:06.196Z,4.67
2019-02-28T01:22:59.572Z,4.80
2019-02-28T01:27:53.105Z,4.83
2019-02-28T01:32:49.805Z,5.33
2019-02-28T01:37:40.072Z,5.30
2019-02-28T01:42:33.401Z,4.63
2019-02-28T01:47:27.094Z,5.17
2019-02-28T01:52:20.473Z,4.57
2019-02-28T01:57:13.842Z,4.00
2019-02-28T02:02:07.219Z,3.67
2019-02-28T02:07:00.575Z,4.90
2019-02-28T02:11:53.949Z,6.97
2019-02-28T02:16:47.319Z,5.53
2019-02-28T02:21:40.683Z,4.83
2019-02-28T02:26:34.046Z,4.87
2019-02-28T02:31:28.856Z,4.30
2019-02-28T02:36:20.875Z,4.77
2019-02-28T02:41:14.554Z,3.60
2019-02-28T02:46:08.249Z,4.60
2019-02-28T02:51:01.620Z,4.13
2019-02-28T02:55:55.007Z,3.93
2019-02-28T03:00:51.153Z,5.33
2019-02-28T03:05:41.760Z,4.63
2019-02-28T03:10:35.134Z,5.30
2019-02-28T03:15:28.531Z,3.83
2019-02-28T03:20:22.202Z,6.30
2019-02-28T03:25:15.582Z,4.97
2019-02-28T03:30:10.555Z,4.07
2019-02-28T03:35:04.333Z,4.07
2019-02-28T03:40:02.739Z,5.47
2019-02-28T03:44:56.670Z,4.37
2019-02-28T03:49:48.682Z,4.13
2019-02-28T03:54:38.011Z,4.20
2019-02-28T03:59:31.691Z,4.53
2019-02-28T04:04:25.054Z,4.57
2019-02-28T04:09:18.426Z,5.23
2019-02-28T04:14:11.793Z,4.87
2019-02-28T04:19:05.290Z,5.17
2019-02-28T04:23:58.716Z,4.60
2019-02-28T04:28:54.638Z,4.27
2019-02-28T04:33:45.486Z,4.30
2019-02-28T04:38:39.042Z,4.40
2019-02-28T04:43:32.414Z,5.10
2019-02-28T04:48:25.806Z,5.67
2019-02-28T04:53:20.058Z,6.07
2019-02-28T04:58:12.862Z,5.50
2019-02-28T05:03:06.273Z,4.50
2019-02-28T05:08:04.637Z,5.23
2019-02-28T05:12:53.717Z,4.67
2019-02-28T05:17:47.298Z,6.43
2019-02-28T05:22:40.706Z,3.90
2019-02-28T05:27:35.351Z,4.10
2019-02-28T05:32:27.414Z,4.60
2019-02-28T05:37:20.832Z,4.78
2019-02-28T05:42:14.532Z,5.03
2019-02-28T05:47:08.234Z,4.27
2019-02-28T05:52:01.873Z,4.93
2019-02-28T05:56:55.614Z,3.97
2019-02-28T06:01:49.006Z,3.30
2019-02-28T06:06:42.420Z,4.07
2019-02-28T06:11:36.033Z,4.37
2019-02-28T06:16:29.687Z,3.50
2019-02-28T06:21:24.133Z,5.33
2019-02-28T06:26:16.459Z,4.37
2019-02-28T06:31:09.834Z,5.20
2019-02-28T06:36:04.624Z,2.97
2019-02-28T06:40:56.889Z,4.23
2019-02-28T06:45:50.279Z,3.53
2019-02-28T06:50:44.728Z,4.67
2019-02-28T06:55:47.205Z,4.57
2019-02-28T07:00:40.602Z,3.67
2019-02-28T07:05:34.245Z,4.57
2019-02-28T07:10:27.929Z,3.67
2019-02-28T07:15:24.751Z,4.33
2019-02-28T07:20:14.694Z,4.57
2019-02-28T07:25:09.449Z,3.93
2019-02-28T07:30:01.761Z,4.80
2019-02-28T07:34:58.255Z,6.33
2019-02-28T07:39:48.817Z,3.90
2019-02-28T07:44:42.189Z,4.10
2019-02-28T07:49:36.936Z,3.40
2019-02-28T07:54:28.953Z,4.23
2019-02-28T07:59:22.629Z,3.70
2019-02-28T08:04:18.491Z,3.97
2019-02-28T08:09:18.130Z,4.20
2019-02-28T08:14:12.202Z,3.97
2019-02-28T08:19:05.064Z,4.90
2019-02-28T08:23:58.475Z,4.10
2019-02-28T08:28:51.842Z,4.27
2019-02-28T08:33:48.112Z,5.83
2019-02-28T08:38:38.903Z,6.50
2019-02-28T08:43:32.272Z,6.07
2019-02-28T08:48:31.532Z,4.93
2019-02-28T08:53:19.713Z,6.70
2019-02-28T08:58:13.010Z,7.37
2019-02-28T09:03:06.405Z,8.77
2019-02-28T09:07:59.772Z,8.23
2019-02-28T09:12:53.154Z,10.87
2019-02-28T09:17:46.841Z,5.57
2019-02-28T09:22:40.217Z,8.40
2019-02-28T09:27:35.352Z,4.90
2019-02-28T09:32:26.937Z,4.33
2019-02-28T09:37:20.371Z,4.40
2019-02-28T09:42:15.712Z,6.20
2019-02-28T09:47:09.693Z,5.67
2019-02-28T09:52:03.193Z,4.53
2019-02-28T09:56:54.511Z,5.87
2019-02-28T10:01:48.169Z,5.53
2019-02-28T10:06:41.564Z,4.20
2019-02-28T10:11:34.933Z,7.17
2019-02-28T10:16:28.624Z,5.33
2019-02-28T10:21:21.991Z,6.53
2019-02-28T10:26:17.204Z,7.07
2019-02-28T10:31:09.070Z,6.40
2019-02-28T10:36:02.437Z,7.90
2019-02-28T10:40:55.829Z,6.80
2019-02-28T10:45:49.502Z,8.30
2019-02-28T10:50:42.875Z,6.97
2019-02-28T10:55:36.270Z,7.40
2019-02-28T11:00:32.566Z,8.40
2019-02-28T11:05:27.399Z,6.20
2019-02-28T11:10:19.507Z,5.97
2019-02-28T11:15:13.875Z,8.00
2019-02-28T11:20:07.084Z,10.20
2019-02-28T11:25:01.030Z,8.37
2019-02-28T11:29:53.914Z,9.70
2019-02-28T11:34:48.733Z,7.63
2019-02-28T11:39:40.721Z,9.77
2019-02-28T11:44:34.054Z,11.43
2019-02-28T11:49:28.685Z,7.47
2019-02-28T11:54:21.119Z,7.93
2019-02-28T11:59:14.795Z,8.30
2019-02-28T12:04:08.494Z,7.67
2019-02-28T12:09:02.178Z,8.87
2019-02-28T12:13:56.082Z,13.63
2019-02-28T12:18:49.547Z,9.60
2019-02-28T12:23:43.232Z,9.33
2019-02-28T12:28:38.434Z,10.00
2019-02-28T12:33:30.609Z,9.40
2019-02-28T12:38:25.929Z,9.50
2019-02-28T12:43:17.679Z,9.20
2019-02-28T12:48:13.804Z,8.43
2019-02-28T12:53:05.048Z,7.00
2019-02-28T12:57:58.803Z,9.47
2019-02-28T13:02:52.186Z,9.37
2019-02-28T13:07:45.800Z,8.87
2019-02-28T13:12:39.489Z,7.10
2019-02-28T13:17:32.939Z,8.47
2019-02-28T13:22:26.551Z,8.90
2019-02-28T13:27:20.241Z,7.50
2019-02-28T13:32:13.622Z,9.40
2019-02-28T13:37:07.320Z,7.47
2019-02-28T13:42:02.997Z,7.33
2019-02-28T13:46:54.361Z,6.87
2019-02-28T13:51:47.765Z,6.13
2019-02-28T13:56:41.450Z,6.73
2019-02-28T14:01:35.137Z,8.10
2019-02-28T14:06:28.799Z,6.90
2019-02-28T14:11:22.195Z,7.27
2019-02-28T14:16:15.871Z,6.37
2019-02-28T14:21:09.570Z,5.97
2019-02-28T14:26:03.853Z,7.30
2019-02-28T14:30:57.787Z,9.23
2019-02-28T14:35:51.251Z,7.93
2019-02-28T14:40:44.615Z,6.90
2019-02-28T14:45:39.018Z,7.20
2019-02-28T14:50:32.318Z,7.33
2019-02-28T14:55:25.991Z,8.90
2019-02-28T15:00:20.715Z,7.70
2019-02-28T15:05:16.600Z,6.17
2019-02-28T15:10:08.907Z,4.80
2019-02-28T15:15:02.577Z,5.27
2019-02-28T15:19:56.989Z,7.87
2019-02-28T15:24:49.930Z,6.07
2019-02-28T15:29:43.635Z,6.43
2019-02-28T15:34:42.255Z,5.77
2019-02-28T15:39:35.920Z,5.17
2019-02-28T15:44:30.178Z,6.40
2019-02-28T15:49:23.154Z,5.07
2019-02-28T15:54:16.523Z,5.83
2019-02-28T15:59:11.580Z,5.10
2019-02-28T16:04:04.099Z,7.13
2019-02-28T16:08:57.724Z,5.43
2019-02-28T16:13:51.595Z,5.13
2019-02-28T16:18:47.170Z,5.93
2019-02-28T16:23:38.796Z,6.47
2019-02-28T16:28:32.467Z,7.33
2019-02-28T16:33:26.174Z,6.23
2019-02-28T16:38:19.849Z,7.77
2019-02-28T16:43:13.227Z,10.90
2019-02-28T16:48:07.648Z,9.00
2019-02-28T16:53:01.038Z,15.70
2019-02-28T16:57:54.595Z,10.80
2019-02-28T17:02:48.278Z,11.63
2019-02-28T17:07:43.570Z,12.57
2019-02-28T17:12:59.539Z,10.87
2019-02-28T17:17:55.582Z,11.83
2019-02-28T17:22:49.139Z,12.40
2019-02-28T17:27:51.368Z,11.27
2019-02-28T17:32:44.733Z,12.10
2019-02-28T17:37:38.174Z,15.17
2019-02-28T17:42:31.620Z,14.93
2019-02-28T17:47:47.741Z,13.70
2019-02-28T17:52:50.229Z,16.70
2019-02-28T17:57:48.717Z,14.97
2019-02-28T18:02:49.139Z,16.10
2019-02-28T18:07:47.097Z,13.93
2019-02-28T18:12:59.114Z,15.27
2019-02-28T18:18:10.882Z,13.37
2019-02-28T18:23:17.452Z,13.80
2019-02-28T18:28:18.814Z,14.90
2019-02-28T18:33:11.332Z,16.03
2019-02-28T18:38:05.104Z,12.93
2019-02-28T18:42:58.520Z,18.50
2019-02-28T18:47:52.171Z,16.13
2019-02-28T18:52:45.519Z,15.17
2019-02-28T18:57:38.926Z,13.57
2019-02-28T19:02:32.530Z,10.63
2019-02-28T19:07:26.222Z,14.77
2019-02-28T19:12:19.914Z,14.33
2019-02-28T19:17:13.607Z,14.37
2019-02-28T19:22:07.889Z,15.33
2019-02-28T19:27:01.649Z,14.30
2019-02-28T19:31:55.287Z,14.20
2019-02-28T19:36:48.712Z,13.07
2019-02-28T19:41:42.420Z,12.33
2019-02-28T19:46:35.787Z,14.03
2019-02-28T19:51:29.192Z,16.27
2019-02-28T19:56:22.563Z,14.03
2019-02-28T20:01:19.074Z,13.87
2019-02-28T20:06:09.326Z,13.27
2019-02-28T20:11:03.516Z,12.67
2019-02-28T20:15:56.930Z,12.73
2019-02-28T20:20:50.627Z,12.60
2019-02-28T20:25:44.315Z,12.90
2019-02-28T20:30:37.987Z,15.80
2019-02-28T20:35:31.392Z,11.53
2019-02-28T20:40:25.028Z,14.40
2019-02-28T20:45:18.399Z,9.43
2019-02-28T20:50:22.392Z,14.53
2019-02-28T20:55:15.754Z,13.80
2019-02-28T21:00:10.763Z,15.63
2019-02-28T21:05:04.653Z,15.60
2019-02-28T21:09:58.213Z,12.23
2019-02-28T21:14:51.603Z,19.47
2019-02-28T21:19:45.281Z,12.23
2019-02-28T21:24:38.661Z,12.77
2019-02-28T21:29:32.344Z,12.00
2019-02-28T21:34:25.793Z,12.87
2019-02-28T21:39:19.405Z,19.77
2019-02-28T21:44:12.785Z,15.27
2019-02-28T21:49:06.155Z,16.53
2019-02-28T21:53:59.537Z,14.73
2019-02-28T21:58:53.234Z,13.03
2019-02-28T22:03:46.621Z,11.37
2019-02-28T22:08:40.316Z,15.80
2019-02-28T22:13:33.694Z,16.07
2019-02-28T22:18:27.370Z,13.63
2019-02-28T22:23:20.748Z,15.60
2019-02-28T22:28:14.430Z,16.13
2019-02-28T22:33:11.111Z,14.00
2019-02-28T22:38:04.550Z,15.80
2019-02-28T22:42:58.269Z,16.13
2019-02-28T22:47:51.924Z,15.47
2019-02-28T22:52:45.614Z,14.07
2019-02-28T22:57:39.310Z,15.97
2019-02-28T23:02:32.697Z,13.30
2019-02-28T23:07:26.362Z,14.67
2019-02-28T23:12:19.737Z,13.47
2019-02-28T23:17:13.430Z,18.00
2019-02-28T23:22:07.113Z,12.93
2019-02-28T23:27:26.072Z,12.40
2019-02-28T23:32:33.509Z,16.60
2019-02-28T23:37:27.213Z,19.90
2019-02-28T23:42:20.609Z,24.77
2019-02-28T23:47:14.011Z,25.93
2019-02-28T23:52:07.424Z,18.67
2019-02-28T23:57:01.023Z,17.43
